Cleghorn, Iowa
Current Conditions -  °F | °C
As of 12:35 PM on Thursday 29 Jan 2015 (Local Time) from KCKP Reporting Station
Overcast Overcast  
Wind Chill: 21°   Ceiling: 2500
Heat Index: 32°   Visibility: 10mi
Dew Point: 25°   Wind: 17mph
Humidity: 76%   Direction: 350°N
Pressure: 30.38"   Gusts: 28mph
Location:  42.81°N, 95.71°W
Report Text: KCKP 291835Z AUTO 35015G24KT 10SM BKN025 OVC030 00/M04 A3038 RMK AO2 T00001038
Loading
Personal Weather Stations






























Interactive Weather Map New forecast layout! Learn more

10-Day Weather Forecast

Advertisements
Track Severe Weather on mobile